Time;durP1;ratioP1;P1;durP2;ratioP2;P2;SDS_P1;SDS_P2;PMS_P1;PMS_P2;Temp;Humidity;BMP_temperature;BMP_pressure;BME280_temperature;BME280_humidity;BME280_pressure;Samples;Min_cycle;Max_cycle;Signal;HPM_P1;HPM_P2
2021/10/13 00:03:12;;;;;;;1.30;0.80;;;17.50;73.40;;;;;;10496889;28;20060;-57
2021/10/13 00:08:12;;;;;;;2.45;1.02;;;17.50;73.40;;;;;;10490973;28;20017;-57
2021/10/13 00:13:14;;;;;;;1.77;0.70;;;17.50;73.40;;;;;;10488132;28;20060;-57
2021/10/13 00:18:15;;;;;;;1.00;0.50;;;17.40;73.40;;;;;;10496606;28;20051;-57
2021/10/13 00:23:15;;;;;;;2.95;1.17;;;17.40;73.30;;;;;;10496388;28;20036;-57
2021/10/13 00:28:16;;;;;;;1.52;0.90;;;17.40;73.30;;;;;;10496068;28;20100;-57
2021/10/13 00:33:17;;;;;;;1.88;0.70;;;17.50;73.30;;;;;;10496219;28;20187;-56
2021/10/13 00:38:18;;;;;;;1.23;0.60;;;17.50;73.20;;;;;;10494615;28;20037;-56
2021/10/13 00:43:19;;;;;;;2.53;0.60;;;17.50;73.10;;;;;;10495299;28;20103;-57
2021/10/13 00:48:19;;;;;;;1.30;0.80;;;17.50;73.10;;;;;;10506318;28;20028;-57
2021/10/13 00:53:22;;;;;;;2.45;0.73;;;17.50;73.10;;;;;;10503789;28;20507;-57
2021/10/13 00:58:26;;;;;;;1.35;0.63;;;17.50;73.20;;;;;;10503443;28;20118;-57
2021/10/13 01:04:10;;;;;;;1.60;0.70;;;17.40;73.20;;;;;;10503457;28;20061;-57
2021/10/13 01:09:23;;;;;;;1.33;0.60;;;17.40;73.20;;;;;;10502312;28;20021;-57
2021/10/13 01:14:33;;;;;;;2.63;0.95;;;17.40;73.10;;;;;;10501516;28;20040;-57
2021/10/13 01:19:46;;;;;;;1.40;0.68;;;17.40;73.00;;;;;;10502899;28;20050;-57
2021/10/13 01:25:21;;;;;;;2.95;0.73;;;17.50;72.90;;;;;;10502880;28;20036;-57
2021/10/13 01:30:24;;;;;;;1.67;0.65;;;17.50;72.70;;;;;;10502516;28;20028;-57
2021/10/13 01:35:28;;;;;;;1.42;0.50;;;17.50;72.70;;;;;;10502161;28;20048;-57
2021/10/13 01:40:32;;;;;;;1.55;0.70;;;17.50;72.80;;;;;;10500759;28;20049;-56
2021/10/13 01:45:34;;;;;;;1.52;0.47;;;17.50;72.80;;;;;;10502041;28;20034;-57
2021/10/13 01:50:35;;;;;;;1.90;0.80;;;17.50;72.80;;;;;;10501992;28;20032;-57
2021/10/13 01:55:37;;;;;;;2.28;0.52;;;17.50;72.90;;;;;;10498851;28;20064;-57
2021/10/13 02:00:40;;;;;;;1.77;0.65;;;17.40;72.90;;;;;;10500482;28;20048;-57
2021/10/13 02:05:42;;;;;;;1.90;0.60;;;17.40;72.90;;;;;;10499856;28;20389;-57
2021/10/13 02:10:46;;;;;;;1.10;0.60;;;17.40;72.80;;;;;;10486275;28;20028;-56
2021/10/13 02:15:50;;;;;;;2.50;0.60;;;17.40;72.70;;;;;;10499729;28;20021;-57
2021/10/13 02:20:51;;;;;;;1.85;0.80;;;17.40;72.70;;;;;;10499525;28;20497;-57
2021/10/13 02:25:53;;;;;;;2.00;0.63;;;17.50;72.80;;;;;;10500264;28;20031;-57
2021/10/13 02:30:54;;;;;;;1.38;0.65;;;17.50;72.60;;;;;;10499956;28;20436;-57
2021/10/13 02:35:54;;;;;;;1.92;0.90;;;17.50;72.60;;;;;;10498599;28;20056;-57
2021/10/13 02:40:55;;;;;;;1.67;0.55;;;17.40;72.60;;;;;;10499879;28;20028;-55
2021/10/13 02:46:06;;;;;;;1.73;0.88;;;17.40;72.70;;;;;;10499590;28;20063;-57
2021/10/13 02:51:25;;;;;;;1.20;0.68;;;17.40;72.70;;;;;;10499494;28;20035;-57
2021/10/13 02:56:31;;;;;;;0.88;0.40;;;17.40;72.70;;;;;;10481547;28;20024;-57
2021/10/13 03:01:40;;;;;;;0.85;0.45;;;17.50;72.40;;;;;;10497637;28;20036;-57
2021/10/13 03:06:51;;;;;;;2.30;0.53;;;17.50;72.40;;;;;;10498259;28;20036;-57
2021/10/13 03:11:54;;;;;;;1.83;0.70;;;17.50;72.40;;;;;;10490746;28;20028;-57
2021/10/13 03:16:56;;;;;;;2.00;0.65;;;17.50;72.40;;;;;;10498461;28;20029;-58
2021/10/13 03:22:00;;;;;;;1.15;0.57;;;17.50;72.50;;;;;;10496865;28;20028;-57
2021/10/13 03:27:00;;;;;;;1.05;0.47;;;17.50;72.50;;;;;;10496889;28;20455;-57
2021/10/13 03:32:01;;;;;;;1.05;0.60;;;17.40;72.50;;;;;;10497744;28;20044;-57
2021/10/13 03:37:02;;;;;;;2.08;0.68;;;17.40;72.60;;;;;;10497396;28;20592;-57
2021/10/13 03:42:03;;;;;;;1.23;0.50;;;17.40;72.60;;;;;;10497203;28;20100;-54
2021/10/13 03:47:06;;;;;;;1.23;0.50;;;17.50;72.40;;;;;;10496504;28;20024;-57
2021/10/13 03:52:06;;;;;;;1.05;0.50;;;17.50;72.30;;;;;;10497634;28;20071;-57
2021/10/13 03:57:07;;;;;;;2.30;0.60;;;17.50;72.20;;;;;;10497443;28;20393;-57
2021/10/13 04:02:07;;;;;;;1.52;0.55;;;17.50;72.30;;;;;;10495335;28;20127;-57
2021/10/13 04:07:08;;;;;;;0.98;0.60;;;17.50;72.30;;;;;;10495308;28;20115;-57
2021/10/13 04:12:09;;;;;;;1.02;0.57;;;17.50;72.30;;;;;;10496880;28;20514;-58
2021/10/13 04:17:10;;;;;;;0.70;0.40;;;17.50;72.30;;;;;;10496496;28;20045;-57
2021/10/13 04:22:10;;;;;;;1.50;0.63;;;17.40;72.40;;;;;;10503618;28;20423;-57
2021/10/13 04:27:11;;;;;;;1.30;0.60;;;17.40;72.50;;;;;;10486910;28;20488;-57
2021/10/13 04:32:12;;;;;;;2.30;0.57;;;17.50;72.30;;;;;;10503485;28;20392;-57
2021/10/13 04:37:12;;;;;;;1.33;0.60;;;17.50;72.10;;;;;;10503200;28;20158;-58
2021/10/13 04:42:13;;;;;;;1.75;0.50;;;17.60;71.90;;;;;;10504225;28;20364;-57
2021/10/13 04:47:14;;;;;;;0.60;0.50;;;17.80;71.20;;;;;;10504047;28;20458;-57
2021/10/13 04:52:14;;;;;;;0.65;0.30;;;18.10;70.30;;;;;;10506124;28;20036;-58
2021/10/13 04:57:16;;;;;;;1.08;0.60;;;18.30;69.50;;;;;;10498156;28;20028;-54
2021/10/13 05:02:17;;;;;;;1.90;0.63;;;18.60;68.90;;;;;;10498818;28;20036;-55
2021/10/13 05:07:17;;;;;;;2.10;0.50;;;18.70;69.00;;;;;;10503349;28;20054;-56
2021/10/13 05:12:18;;;;;;;4.80;1.02;;;18.80;69.00;;;;;;10472135;28;20485;-56
2021/10/13 05:17:19;;;;;;;6.55;0.68;;;18.90;69.30;;;;;;10503108;28;20079;-56
2021/10/13 05:22:19;;;;;;;5.90;0.63;;;18.80;70.60;;;;;;10501530;28;20067;-55
2021/10/13 05:27:20;;;;;;;10.38;1.20;;;18.70;70.50;;;;;;10502033;28;20477;-55
2021/10/13 05:32:22;;;;;;;5.07;0.90;;;18.70;71.00;;;;;;10500970;28;20036;-57
2021/10/13 05:37:23;;;;;;;5.03;0.95;;;18.60;71.40;;;;;;10501637;28;20060;-57
2021/10/13 05:42:23;;;;;;;8.60;1.00;;;18.50;71.60;;;;;;10500725;28;20096;-57
2021/10/13 05:47:24;;;;;;;9.77;1.30;;;18.40;71.70;;;;;;10500079;28;20111;-55
2021/10/13 05:52:25;;;;;;;6.28;0.90;;;18.20;72.20;;;;;;10498843;28;20111;-55
2021/10/13 05:57:25;;;;;;;9.82;1.30;;;18.20;72.60;;;;;;10497221;28;20115;-51
2021/10/13 06:02:26;;;;;;;10.38;1.40;;;18.20;72.00;;;;;;10498371;28;20021;-57
2021/10/13 06:07:27;;;;;;;14.48;1.42;;;18.30;72.00;;;;;;10500480;28;20086;-56
2021/10/13 06:12:28;;;;;;;12.38;1.58;;;18.30;72.00;;;;;;10498537;28;20044;-56
2021/10/13 06:17:30;;;;;;;8.38;1.55;;;18.30;71.70;;;;;;10499749;28;20076;-57
2021/10/13 06:22:31;;;;;;;5.43;1.27;;;18.30;71.80;;;;;;10497403;28;20032;-56
2021/10/13 06:27:31;;;;;;;11.25;2.08;;;18.30;72.00;;;;;;10499680;28;20028;-56
2021/10/13 06:32:32;;;;;;;17.23;2.83;;;18.30;72.00;;;;;;10499272;28;20496;-56
2021/10/13 06:37:33;;;;;;;10.85;1.70;;;18.40;72.70;;;;;;10480913;28;20072;-54
2021/10/13 06:42:33;;;;;;;11.27;1.90;;;18.30;72.00;;;;;;10489104;28;20107;-56
2021/10/13 06:47:34;;;;;;;10.80;1.90;;;18.30;72.30;;;;;;10486622;28;20042;-56
2021/10/13 06:52:37;;;;;;;10.95;2.63;;;18.30;72.50;;;;;;10487676;28;20039;-52
2021/10/13 06:57:38;;;;;;;15.65;2.35;;;18.30;72.90;;;;;;10487806;28;20590;-56
2021/10/13 07:02:38;;;;;;;11.52;1.80;;;18.30;73.00;;;;;;10494156;28;20102;-54
2021/10/13 07:07:44;;;;;;;16.38;2.35;;;18.30;73.10;;;;;;10498172;28;20119;-56
2021/10/13 07:12:46;;;;;;;15.20;1.85;;;18.20;73.10;;;;;;10488161;28;20028;-55
2021/10/13 07:17:47;;;;;;;11.75;2.03;;;18.20;72.90;;;;;;10488935;28;20473;-55
2021/10/13 07:22:48;;;;;;;10.32;1.27;;;18.10;72.70;;;;;;10486124;28;20477;-55
2021/10/13 07:27:49;;;;;;;20.52;2.58;;;18.10;72.80;;;;;;10489377;28;20040;-54
2021/10/13 07:32:51;;;;;;;19.45;2.85;;;18.10;72.60;;;;;;10488812;28;20506;-53
2021/10/13 07:37:51;;;;;;;6.47;2.00;;;18.10;72.60;;;;;;10487965;28;20558;-54
2021/10/13 07:42:53;;;;;;;10.00;1.95;;;18.00;72.60;;;;;;10484550;28;20098;-54
2021/10/13 07:47:54;;;;;;;8.70;2.03;;;18.00;72.70;;;;;;10487811;28;20059;-54
2021/10/13 07:52:55;;;;;;;7.35;1.38;;;18.00;72.70;;;;;;10491287;28;20028;-54
2021/10/13 07:57:56;;;;;;;4.60;1.48;;;17.90;72.80;;;;;;10495213;28;20031;-56
2021/10/13 08:02:56;;;;;;;12.07;1.52;;;17.90;72.90;;;;;;10496428;28;20056;-54
2021/10/13 08:07:57;;;;;;;4.97;1.23;;;17.90;72.90;;;;;;10493349;28;20040;-55
2021/10/13 08:12:59;;;;;;;2.80;0.73;;;18.00;72.70;;;;;;10490402;28;20395;-55
2021/10/13 08:17:59;;;;;;;4.78;1.20;;;18.00;72.50;;;;;;10496093;28;20089;-56
2021/10/13 08:23:00;;;;;;;5.15;1.13;;;18.00;72.40;;;;;;10494780;28;20029;-55
2021/10/13 08:28:01;;;;;;;4.35;1.30;;;18.10;72.20;;;;;;10494199;28;20031;-55
2021/10/13 08:33:02;;;;;;;3.13;1.00;;;18.10;72.70;;;;;;10495479;28;20036;-55
2021/10/13 08:38:02;;;;;;;5.35;1.17;;;18.10;72.10;;;;;;10495450;28;20120;-54
2021/10/13 08:43:05;;;;;;;4.20;1.35;;;18.10;72.10;;;;;;10494933;28;20416;-55
2021/10/13 08:48:07;;;;;;;5.05;0.70;;;18.10;72.20;;;;;;10495743;28;20040;-55
2021/10/13 08:53:14;;;;;;;4.68;0.98;;;18.00;72.30;;;;;;10494762;28;20035;-55
2021/10/13 08:58:24;;;;;;;4.20;0.88;;;18.00;72.40;;;;;;10494565;28;20477;-55
2021/10/13 09:03:32;;;;;;;4.03;1.13;;;18.00;72.50;;;;;;10495332;28;20393;-55
2021/10/13 09:08:32;;;;;;;3.03;0.70;;;18.00;72.70;;;;;;10500977;28;20032;-55
2021/10/13 09:13:36;;;;;;;4.18;0.93;;;17.90;72.70;;;;;;10502712;28;20378;-53
2021/10/13 09:18:37;;;;;;;6.70;1.17;;;17.90;73.10;;;;;;10502284;28;20036;-54
2021/10/13 09:23:38;;;;;;;9.70;1.83;;;17.90;72.50;;;;;;10501361;28;20029;-57
2021/10/13 09:28:41;;;;;;;6.57;1.50;;;18.00;73.20;;;;;;10500564;28;20119;-53
2021/10/13 09:34:08;;;;;;;13.35;2.92;;;18.10;72.70;;;;;;10501815;28;20029;-52
2021/10/13 09:39:16;;;;;;;10.02;2.15;;;18.10;72.80;;;;;;10499057;28;20048;-51
2021/10/13 09:44:17;;;;;;;8.65;2.15;;;18.00;72.80;;;;;;10500757;28;20062;-55
2021/10/13 09:49:40;;;;;;;10.90;2.42;;;18.00;73.20;;;;;;10501017;28;20560;-55
2021/10/13 09:54:44;;;;;;;58.55;10.45;;;18.00;73.20;;;;;;10500843;28;20068;-55
2021/10/13 10:00:04;;;;;;;59.28;11.23;;;18.10;72.40;;;;;;10500372;28;20358;-53
2021/10/13 10:05:46;;;;;;;98.32;15.60;;;17.90;72.00;;;;;;10495461;28;20036;-53
2021/10/13 10:11:06;;;;;;;75.22;11.80;;;17.90;70.60;;;;;;10490039;28;20041;-55
2021/10/13 10:16:09;;;;;;;83.80;15.38;;;17.80;70.10;;;;;;10496723;28;20445;-53
2021/10/13 10:21:20;;;;;;;103.88;16.13;;;17.80;70.10;;;;;;10499507;28;20509;-54
2021/10/13 10:26:26;;;;;;;86.22;14.30;;;17.80;69.90;;;;;;10499632;28;20036;-54
2021/10/13 10:31:27;;;;;;;49.67;10.68;;;17.80;69.70;;;;;;10499371;28;20451;-55
2021/10/13 10:36:48;;;;;;;68.88;11.10;;;17.80;69.40;;;;;;10499357;28;20131;-50
2021/10/13 10:41:54;;;;;;;60.00;11.70;;;18.00;69.30;;;;;;10498558;28;20086;-52
2021/10/13 10:47:03;;;;;;;49.80;10.68;;;18.20;69.00;;;;;;10497923;28;20029;-54
2021/10/13 10:52:05;;;;;;;42.25;9.60;;;18.10;69.30;;;;;;10500193;28;20056;-53
2021/10/13 10:57:32;;;;;;;44.72;9.75;;;18.10;70.30;;;;;;10498175;28;20501;-52
2021/10/13 11:02:32;;;;;;;32.45;7.75;;;18.00;70.00;;;;;;10498048;28;20103;-54
2021/10/13 11:07:33;;;;;;;25.13;6.60;;;18.00;70.10;;;;;;10496300;28;20145;-54
2021/10/13 11:12:49;;;;;;;16.60;4.72;;;18.00;69.00;;;;;;10496662;28;20039;-53
2021/10/13 11:17:50;;;;;;;23.45;5.07;;;18.00;68.40;;;;;;10497787;28;20470;-54
2021/10/13 11:22:59;;;;;;;20.75;4.25;;;17.90;68.10;;;;;;10497148;28;20033;-50
2021/10/13 11:28:08;;;;;;;12.77;4.53;;;17.90;68.60;;;;;;10496657;28;20370;-50
2021/10/13 11:33:12;;;;;;;13.57;3.72;;;17.90;67.60;;;;;;10497106;28;20086;-53
2021/10/13 11:38:19;;;;;;;13.50;2.75;;;17.90;67.30;;;;;;10495564;28;20047;-53
2021/10/13 11:43:22;;;;;;;10.50;3.03;;;17.80;67.30;;;;;;10496570;28;20534;-55
2021/10/13 11:48:30;;;;;;;15.40;3.97;;;17.80;68.00;;;;;;10497690;28;20032;-53
2021/10/13 11:53:31;;;;;;;9.73;1.85;;;17.70;69.20;;;;;;10496025;28;20036;-55
2021/10/13 11:58:32;;;;;;;5.65;1.83;;;17.80;67.20;;;;;;10495084;28;20032;-51
2021/10/13 12:03:37;;;;;;;5.63;2.17;;;17.70;66.80;;;;;;10496132;28;20031;-55
2021/10/13 12:08:40;;;;;;;8.82;2.80;;;17.70;67.50;;;;;;10495383;28;20040;-53
2021/10/13 12:13:44;;;;;;;11.48;2.70;;;17.70;69.10;;;;;;10498090;28;20039;-53
2021/10/13 12:18:46;;;;;;;11.55;3.58;;;17.70;69.20;;;;;;10492090;28;20025;-55
2021/10/13 12:23:58;;;;;;;5.15;2.28;;;17.70;68.50;;;;;;10495246;28;20103;-53
2021/10/13 12:29:11;;;;;;;20.45;3.50;;;17.60;67.00;;;;;;10489816;28;20039;-52
2021/10/13 12:34:18;;;;;;;12.18;2.60;;;17.60;67.20;;;;;;10485335;28;20090;-53
2021/10/13 12:39:26;;;;;;;17.10;3.03;;;17.60;67.40;;;;;;10478289;28;20028;-53
2021/10/13 12:44:29;;;;;;;20.05;3.80;;;17.60;68.10;;;;;;10503094;28;20542;-50
2021/10/13 12:49:37;;;;;;;22.30;4.20;;;17.60;68.20;;;;;;10503462;28;20028;-52
2021/10/13 12:54:42;;;;;;;11.82;3.00;;;17.70;68.70;;;;;;10473748;28;20032;-52
2021/10/13 12:59:45;;;;;;;14.95;3.35;;;17.70;69.60;;;;;;10501782;28;20031;-52
2021/10/13 13:04:46;;;;;;;14.50;3.63;;;17.70;69.80;;;;;;10502188;28;20025;-51
2021/10/13 13:09:47;;;;;;;12.93;2.97;;;17.70;69.80;;;;;;10502416;28;20505;-51
2021/10/13 13:14:47;;;;;;;26.10;5.50;;;17.70;69.80;;;;;;10502017;28;20096;-54
2021/10/13 13:19:48;;;;;;;14.50;3.75;;;17.70;70.10;;;;;;10501880;28;20118;-51
2021/10/13 13:24:49;;;;;;;11.35;3.60;;;17.70;70.20;;;;;;10501627;28;20233;-49
2021/10/13 13:29:49;;;;;;;21.25;6.05;;;17.60;69.70;;;;;;10501503;28;20118;-51
2021/10/13 13:34:51;;;;;;;20.17;4.97;;;17.70;70.60;;;;;;10501285;28;20075;-56
2021/10/13 13:39:52;;;;;;;12.93;4.15;;;17.60;70.30;;;;;;10500882;28;20024;-54
2021/10/13 13:44:52;;;;;;;18.13;4.32;;;17.60;69.70;;;;;;10500708;28;20803;-55
2021/10/13 13:49:53;;;;;;;16.52;3.88;;;17.50;70.00;;;;;;10503047;28;20498;-53
2021/10/13 13:54:55;;;;;;;14.45;3.63;;;17.50;70.10;;;;;;10500708;28;20505;-53
2021/10/13 13:59:56;;;;;;;16.33;4.03;;;17.50;70.00;;;;;;10491187;28;20499;-53
2021/10/13 14:04:56;;;;;;;17.77;3.42;;;17.50;69.90;;;;;;10492296;28;20031;-47
2021/10/13 14:09:57;;;;;;;14.27;3.05;;;17.50;69.80;;;;;;10485705;28;20029;-49
2021/10/13 14:14:58;;;;;;;17.00;4.57;;;17.40;69.50;;;;;;10482111;28;20385;-49
2021/10/13 14:19:59;;;;;;;12.23;3.80;;;17.40;69.50;;;;;;10489895;28;20396;-53
2021/10/13 14:25:00;;;;;;;13.05;3.35;;;17.40;69.30;;;;;;10485007;28;20031;-50
2021/10/13 14:30:00;;;;;;;15.30;3.35;;;17.40;69.60;;;;;;10490789;28;20051;-49
2021/10/13 14:35:01;;;;;;;13.50;2.67;;;17.40;69.60;;;;;;10502687;28;20110;-51
2021/10/13 14:40:03;;;;;;;5.93;2.60;;;17.30;69.60;;;;;;10497939;28;20555;-50
2021/10/13 14:45:06;;;;;;;12.10;2.90;;;17.40;69.60;;;;;;10496257;28;20028;-51
2021/10/13 14:50:07;;;;;;;9.40;2.63;;;17.40;69.60;;;;;;10500723;28;20029;-52
2021/10/13 14:55:09;;;;;;;7.82;2.30;;;17.30;69.70;;;;;;10498250;28;20695;-52
2021/10/13 15:00:10;;;;;;;7.90;3.17;;;17.30;69.70;;;;;;10493618;28;20120;-51
2021/10/13 15:05:11;;;;;;;9.00;2.38;;;17.30;69.80;;;;;;10494530;28;20556;-53
2021/10/13 15:10:11;;;;;;;7.10;2.15;;;17.30;69.90;;;;;;10486650;28;20063;-52
2021/10/13 15:15:12;;;;;;;9.82;2.42;;;17.30;69.90;;;;;;10496848;28;20031;-50
2021/10/13 15:20:13;;;;;;;10.90;2.60;;;17.30;70.10;;;;;;10496077;28;20058;-48
2021/10/13 15:25:13;;;;;;;7.13;2.25;;;17.30;70.00;;;;;;10497047;28;20024;-52
2021/10/13 15:30:14;;;;;;;6.78;2.58;;;17.30;70.00;;;;;;10497043;28;20488;-53
2021/10/13 15:35:15;;;;;;;12.43;2.95;;;17.30;70.10;;;;;;10495595;28;20523;-52
2021/10/13 15:40:16;;;;;;;5.30;2.05;;;17.20;70.10;;;;;;10503590;28;20480;-53
2021/10/13 15:45:17;;;;;;;6.70;2.45;;;17.30;70.10;;;;;;10494220;28;20025;-53
2021/10/13 15:50:18;;;;;;;7.97;2.58;;;17.30;70.20;;;;;;10478179;28;20052;-51
2021/10/13 15:55:18;;;;;;;5.88;1.92;;;17.20;70.20;;;;;;10495490;28;20036;-49
2021/10/13 16:00:19;;;;;;;8.23;2.22;;;17.20;70.40;;;;;;10493042;28;20036;-53
2021/10/13 16:05:20;;;;;;;5.30;2.03;;;17.20;70.30;;;;;;10494699;28;20028;-53
2021/10/13 16:10:21;;;;;;;11.52;2.03;;;17.20;70.40;;;;;;10492603;28;20107;-52
2021/10/13 16:15:21;;;;;;;6.20;2.15;;;17.20;71.00;;;;;;10493605;28;20040;-53
2021/10/13 16:20:22;;;;;;;4.85;2.53;;;17.30;71.10;;;;;;10493961;28;20103;-52
2021/10/13 16:25:23;;;;;;;5.97;1.83;;;17.30;71.10;;;;;;10492519;28;20139;-52
2021/10/13 16:30:24;;;;;;;5.15;2.05;;;17.30;71.10;;;;;;10493608;28;20022;-52
2021/10/13 16:35:25;;;;;;;6.15;2.10;;;17.30;71.10;;;;;;10447660;28;1199019;-53
2021/10/13 16:40:27;;;;;;;5.10;2.40;;;17.30;71.00;;;;;;10495617;28;20040;-52
2021/10/13 16:45:28;;;;;;;7.30;2.72;;;17.30;71.30;;;;;;10481561;28;20064;-53
2021/10/13 16:50:29;;;;;;;8.43;2.03;;;17.30;71.20;;;;;;10480146;28;20060;-54
2021/10/13 16:55:29;;;;;;;6.65;2.00;;;17.30;71.20;;;;;;10495038;28;20047;-53
2021/10/13 17:00:30;;;;;;;8.35;2.47;;;17.60;70.40;;;;;;10476674;28;20124;-53
2021/10/13 17:05:31;;;;;;;9.02;2.05;;;18.00;69.30;;;;;;10494787;28;20107;-55
2021/10/13 17:10:32;;;;;;;8.40;2.47;;;18.30;68.00;;;;;;10494579;28;20108;-55
2021/10/13 17:15:34;;;;;;;10.48;3.03;;;18.50;67.60;;;;;;10494707;28;20031;-56
2021/10/13 17:20:35;;;;;;;9.55;2.45;;;18.40;67.80;;;;;;10493024;28;20036;-56
2021/10/13 17:25:36;;;;;;;10.18;2.50;;;18.30;69.10;;;;;;10487574;28;20029;-54
2021/10/13 17:30:37;;;;;;;11.23;2.75;;;18.30;68.80;;;;;;10490730;28;20581;-54
2021/10/13 17:35:38;;;;;;;8.18;2.40;;;18.30;68.40;;;;;;10494766;28;20084;-53
2021/10/13 17:40:40;;;;;;;8.68;2.60;;;18.30;68.20;;;;;;10489551;28;20043;-53
2021/10/13 17:45:41;;;;;;;6.63;2.40;;;18.30;68.90;;;;;;10500306;28;20031;-54
2021/10/13 17:50:43;;;;;;;5.90;2.17;;;18.30;68.80;;;;;;10492072;28;20021;-55
2021/10/13 17:55:47;;;;;;;8.38;2.30;;;18.30;68.80;;;;;;10496945;28;20089;-53
2021/10/13 18:00:48;;;;;;;6.25;2.30;;;18.40;68.70;;;;;;10499281;28;20056;-54
2021/10/13 18:05:50;;;;;;;6.47;2.50;;;18.40;68.80;;;;;;10494976;28;20056;-51
2021/10/13 18:10:51;;;;;;;6.93;1.95;;;18.30;68.70;;;;;;10479153;28;20028;-55
2021/10/13 18:15:51;;;;;;;6.75;2.25;;;18.30;68.40;;;;;;10488913;28;20040;-55
2021/10/13 18:20:52;;;;;;;6.70;1.95;;;18.30;68.70;;;;;;10500885;28;20039;-52
2021/10/13 18:25:53;;;;;;;7.13;2.20;;;18.40;68.20;;;;;;10499616;28;20023;-53
2021/10/13 18:30:54;;;;;;;6.53;2.42;;;18.50;68.00;;;;;;10498037;28;20029;-52
2021/10/13 18:35:55;;;;;;;8.32;2.17;;;18.60;68.20;;;;;;10494673;28;20068;-54
2021/10/13 18:40:55;;;;;;;9.68;2.20;;;18.50;68.50;;;;;;10494044;28;20099;-56
2021/10/13 18:45:56;;;;;;;6.63;2.20;;;18.50;68.70;;;;;;10497622;28;20025;-56
2021/10/13 18:50:57;;;;;;;7.60;1.92;;;18.30;69.10;;;;;;10499963;28;20064;-56
2021/10/13 18:55:58;;;;;;;5.20;2.03;;;18.30;69.30;;;;;;10497789;28;20035;-55
2021/10/13 19:00:59;;;;;;;5.68;1.92;;;18.20;70.00;;;;;;10498082;28;20028;-55
2021/10/13 19:06:00;;;;;;;9.60;2.10;;;18.10;70.20;;;;;;10486871;28;20021;-55
2021/10/13 19:11:00;;;;;;;7.90;2.55;;;18.10;70.60;;;;;;10492878;28;20519;-55
2021/10/13 19:16:01;;;;;;;5.25;2.03;;;18.10;70.70;;;;;;10497663;28;20044;-56
2021/10/13 19:21:03;;;;;;;4.05;1.75;;;18.00;70.90;;;;;;10491078;28;20033;-55
2021/10/13 19:26:05;;;;;;;6.75;2.22;;;18.00;71.10;;;;;;10496635;28;20353;-56
2021/10/13 19:31:06;;;;;;;10.35;2.40;;;18.00;71.20;;;;;;10496713;28;20031;-57
2021/10/13 19:36:06;;;;;;;5.25;1.80;;;18.00;71.40;;;;;;10496103;28;20048;-55
2021/10/13 19:41:07;;;;;;;5.78;1.80;;;18.10;70.80;;;;;;10497130;28;20347;-56
2021/10/13 19:46:08;;;;;;;6.25;2.10;;;18.10;70.80;;;;;;10495562;28;20032;-50
2021/10/13 19:51:08;;;;;;;4.97;2.10;;;18.00;70.90;;;;;;10493071;28;20035;-49
2021/10/13 19:56:09;;;;;;;4.57;1.52;;;17.90;71.00;;;;;;10493374;28;20032;-49
2021/10/13 20:01:10;;;;;;;5.65;1.88;;;17.90;71.20;;;;;;10492314;28;20040;-47
2021/10/13 20:06:11;;;;;;;4.85;1.30;;;17.80;71.30;;;;;;10482766;28;20423;-48
2021/10/13 20:11:12;;;;;;;4.47;1.88;;;17.80;71.30;;;;;;10487112;28;20617;-50
2021/10/13 20:16:12;;;;;;;5.60;1.90;;;17.80;71.40;;;;;;10485333;28;20115;-47
2021/10/13 20:21:14;;;;;;;4.18;1.33;;;17.70;71.40;;;;;;10496986;28;20112;-48
2021/10/13 20:26:14;;;;;;;2.85;1.63;;;17.70;71.50;;;;;;10488730;28;20086;-48
2021/10/13 20:31:16;;;;;;;4.68;1.75;;;17.70;71.40;;;;;;10496494;28;20117;-47
2021/10/13 20:36:17;;;;;;;3.70;1.55;;;17.70;71.60;;;;;;10486261;28;20040;-47
2021/10/13 20:41:18;;;;;;;2.35;1.48;;;17.70;71.50;;;;;;10490813;28;20025;-49
2021/10/13 20:46:18;;;;;;;3.28;1.48;;;17.60;71.50;;;;;;10483148;28;20037;-49
2021/10/13 20:51:19;;;;;;;2.83;1.50;;;17.60;71.40;;;;;;10496154;28;20468;-48
2021/10/13 20:56:20;;;;;;;4.15;1.48;;;17.50;71.40;;;;;;10494302;28;20497;-47
2021/10/13 21:01:21;;;;;;;2.50;1.30;;;17.50;71.40;;;;;;10474757;28;20039;-49
2021/10/13 21:06:22;;;;;;;3.70;1.65;;;17.50;71.50;;;;;;10502521;28;20126;-47
2021/10/13 21:11:23;;;;;;;4.50;1.40;;;17.50;71.60;;;;;;10499605;28;20027;-48
2021/10/13 21:16:24;;;;;;;4.28;1.23;;;17.50;71.70;;;;;;10493314;28;20111;-47
2021/10/13 21:21:24;;;;;;;4.35;1.55;;;17.50;71.60;;;;;;10499728;28;20036;-47
2021/10/13 21:26:25;;;;;;;4.10;1.63;;;17.50;71.70;;;;;;10496250;28;20107;-49
2021/10/13 21:31:26;;;;;;;2.42;1.40;;;17.40;71.50;;;;;;10500413;28;20082;-47
2021/10/13 21:36:27;;;;;;;3.08;1.38;;;17.40;71.50;;;;;;10500973;28;20044;-48
2021/10/13 21:41:27;;;;;;;3.35;1.40;;;17.40;71.50;;;;;;10501248;28;20059;-48
2021/10/13 21:46:28;;;;;;;2.40;1.33;;;17.40;71.50;;;;;;10501744;28;20178;-48
2021/10/13 21:51:29;;;;;;;2.53;1.30;;;17.40;71.50;;;;;;10501098;28;20078;-47
2021/10/13 21:56:30;;;;;;;3.65;1.20;;;17.40;71.50;;;;;;10486881;28;20104;-48
2021/10/13 22:01:31;;;;;;;5.43;1.40;;;17.40;71.60;;;;;;10499199;28;20059;-47
2021/10/13 22:06:31;;;;;;;2.28;1.25;;;17.40;71.40;;;;;;10497875;28;20085;-48
2021/10/13 22:11:32;;;;;;;2.38;1.25;;;17.40;71.20;;;;;;10485348;28;21411;-46
2021/10/13 22:16:33;;;;;;;2.40;1.00;;;17.50;71.20;;;;;;10492229;28;20016;-48
2021/10/13 22:21:34;;;;;;;3.28;1.35;;;17.50;71.10;;;;;;10500367;28;20366;-48
2021/10/13 22:26:35;;;;;;;2.47;1.35;;;17.50;71.00;;;;;;10500485;28;20060;-46
2021/10/13 22:31:35;;;;;;;4.22;1.83;;;17.50;71.10;;;;;;10500460;28;20028;-47
2021/10/13 22:36:37;;;;;;;3.08;1.50;;;17.40;71.10;;;;;;10499507;28;20086;-47
2021/10/13 22:41:37;;;;;;;4.30;1.40;;;17.40;71.20;;;;;;10497730;28;20025;-51
2021/10/13 22:46:39;;;;;;;3.30;1.05;;;17.40;71.20;;;;;;10498917;28;20037;-48
2021/10/13 22:51:40;;;;;;;2.80;1.58;;;17.40;71.10;;;;;;10500048;28;20028;-51
2021/10/13 22:56:42;;;;;;;2.85;1.80;;;17.40;71.10;;;;;;10498783;28;20036;-52
2021/10/13 23:01:43;;;;;;;2.20;1.08;;;17.40;71.10;;;;;;10498172;28;20031;-47
2021/10/13 23:06:43;;;;;;;4.80;1.60;;;17.50;70.90;;;;;;10497059;28;20147;-48
2021/10/13 23:11:44;;;;;;;1.90;1.20;;;17.50;70.80;;;;;;10498373;28;20077;-48
2021/10/13 23:16:45;;;;;;;2.67;0.90;;;17.50;70.80;;;;;;10498421;28;20032;-47
2021/10/13 23:21:45;;;;;;;2.47;1.00;;;17.50;70.80;;;;;;10496797;28;20056;-50
2021/10/13 23:26:46;;;;;;;4.90;1.35;;;17.40;70.80;;;;;;10497169;28;20028;-46
2021/10/13 23:31:47;;;;;;;2.67;0.90;;;17.40;70.80;;;;;;10497583;28;20099;-46
2021/10/13 23:36:48;;;;;;;4.88;1.23;;;17.40;70.90;;;;;;10497127;28;20516;-48
2021/10/13 23:41:49;;;;;;;3.13;1.52;;;17.40;71.00;;;;;;10496926;28;20037;-49
2021/10/13 23:46:49;;;;;;;2.65;1.27;;;17.40;70.90;;;;;;10496792;28;20028;-50
2021/10/13 23:51:50;;;;;;;2.20;1.10;;;17.40;70.90;;;;;;10498998;28;20067;-51
2021/10/13 23:56:51;;;;;;;2.25;0.82;;;17.40;71.00;;;;;;10496526;28;20024;-50
